Time;durP1;ratioP1;P1;durP2;ratioP2;P2;SDS_P1;SDS_P2;PMS_P1;PMS_P2;Temp;Humidity;BMP_temperature;BMP_pressure;BME280_temperature;BME280_humidity;BME280_pressure;Samples;Min_cycle;Max_cycle;Signal;HPM_P1;HPM_P2
2021/01/04 00:01:00;;;;;;;;;;;;;;;1.47;100.00;100704.13;5095363;28;19928;-78
2021/01/04 00:03:39;;;;;;;;;;;;;;;1.46;100.00;100702.53;5111664;27;19931;-78
2021/01/04 00:06:09;;;;;;;;;;;;;;;1.48;100.00;100711.28;5094502;28;20014;-78
2021/01/04 00:08:35;;;;;;;;;;;;;;;1.47;100.00;100704.13;5095558;28;20363;-78
2021/01/04 00:11:11;;;;;;;;;;;;;;;1.47;100.00;100709.63;5095705;28;19924;-78
2021/01/04 00:13:56;;;;;;;;;;;;;;;1.53;100.00;100711.09;5095535;28;20065;-78
2021/01/04 00:16:49;;;;;;;;;;;;;;;1.52;100.00;100703.97;5094307;28;19924;-78
2021/01/04 00:19:18;;;;;;;;;;;;;;;1.47;100.00;100703.34;5079430;28;20018;-78
2021/01/04 00:22:02;;;;;;;;;;;;;;;1.46;100.00;100707.22;5095381;28;19931;-78
2021/01/04 00:24:36;;;;;;;;;;;;;;;1.42;100.00;100701.53;5111482;27;20021;-78
2021/01/04 00:27:02;;;;;;;;;;;;;;;1.48;100.00;100711.28;5095314;28;20347;-78
2021/01/04 00:29:29;;;;;;;;;;;;;;;1.47;100.00;100709.63;5093295;28;19924;-78
2021/01/04 00:31:58;;;;;;;;;;;;;;;1.48;100.00;100715.97;5095191;28;20046;-78
2021/01/04 00:34:30;;;;;;;;;;;;;;;1.46;100.00;100702.53;5095380;28;19928;-78
2021/01/04 00:36:59;;;;;;;;;;;;;;;1.47;100.00;100709.63;5093740;28;20009;-75
2021/01/04 00:39:44;;;;;;;;;;;;;;;1.52;100.00;100714.19;5094959;28;19928;-78
2021/01/04 00:42:20;;;;;;;;;;;;;;;1.53;100.00;100713.84;5095040;28;19924;-78
2021/01/04 00:44:59;;;;;;;;;;;;;;;1.51;100.00;100710.63;5094625;28;19967;-78
2021/01/04 00:47:44;;;;;;;;;;;;;;;1.49;100.00;100706.56;5094863;28;19924;-77
2021/01/04 00:50:18;;;;;;;;;;;;;;;1.45;100.00;100698.13;5094989;28;19932;-77
2021/01/04 00:52:50;;;;;;;;;;;;;;;1.45;100.00;100709.16;5094854;28;19931;-78
2021/01/04 00:55:22;;;;;;;;;;;;;;;1.44;100.00;100702.03;5094804;28;19924;-78
2021/01/04 00:58:09;;;;;;;;;;;;;;;1.33;100.00;100700.72;5094396;28;19932;-78
2021/01/04 01:00:41;;;;;;;;;;;;;;;1.31;100.00;100703.00;5073585;28;19970;-78
2021/01/04 01:03:14;;;;;;;;;;;;;;;1.24;100.00;100697.13;5094601;28;20018;-78
2021/01/04 01:05:59;;;;;;;;;;;;;;;1.22;100.00;100699.44;5093256;28;19951;-77
2021/01/04 01:08:27;;;;;;;;;;;;;;;1.23;100.00;100703.78;5094586;28;20278;-77
2021/01/04 01:11:03;;;;;;;;;;;;;;;1.22;100.00;100704.94;5094504;28;19924;-78
2021/01/04 01:13:34;;;;;;;;;;;;;;;1.19;100.00;100699.25;5094030;28;20283;-78
2021/01/04 01:16:00;;;;;;;;;;;;;;;1.23;100.00;100708.47;5094431;28;19924;-78
2021/01/04 01:18:36;;;;;;;;;;;;;;;1.24;100.00;100699.91;5094335;28;19924;-78
2021/01/04 01:21:05;;;;;;;;;;;;;;;1.22;100.00;100696.69;5093269;28;19974;-78
2021/01/04 01:23:33;;;;;;;;;;;;;;;1.19;100.00;100697.31;5094297;28;19970;-78
2021/01/04 01:26:12;;;;;;;;;;;;;;;1.23;100.00;100701.03;5094249;28;19967;-78
2021/01/04 01:28:51;;;;;;;;;;;;;;;1.33;100.00;100706.22;5094205;28;19988;-77
2021/01/04 01:31:28;;;;;;;;;;;;;;;1.26;100.00;100697.63;5094306;28;20399;-77
2021/01/04 01:34:01;;;;;;;;;;;;;;;1.24;100.00;100705.41;5093088;28;19931;-77
2021/01/04 01:36:37;;;;;;;;;;;;;;;1.29;100.00;100701.69;5094266;28;20011;-78
2021/01/04 01:39:13;;;;;;;;;;;;;;;1.29;100.00;100702.50;5093645;28;19931;-78
2021/01/04 01:41:39;;;;;;;;;;;;;;;1.28;100.00;100703.66;5092527;28;20303;-77
2021/01/04 01:44:25;;;;;;;;;;;;;;;1.23;100.00;100702.97;5094115;28;19924;-78
2021/01/04 01:47:01;;;;;;;;;;;;;;;1.18;100.00;100697.66;5094125;28;19924;-78
2021/01/04 01:49:47;;;;;;;;;;;;;;;1.23;100.00;100698.28;5092927;28;20019;-78
2021/01/04 01:52:15;;;;;;;;;;;;;;;1.30;100.00;100704.13;5092824;28;19924;-78
2021/01/04 01:54:48;;;;;;;;;;;;;;;1.37;100.00;100706.41;5092927;28;19931;-78
2021/01/04 01:57:24;;;;;;;;;;;;;;;1.46;100.00;100719.06;5092477;28;20276;-78
2021/01/04 02:00:00;;;;;;;;;;;;;;;1.53;100.00;100718.56;5094067;28;19924;-78
2021/01/04 02:02:32;;;;;;;;;;;;;;;1.50;100.00;100713.72;5094267;28;19928;-78
2021/01/04 02:05:07;;;;;;;;;;;;;;;1.46;100.00;100719.06;5094102;28;20424;-78
2021/01/04 02:07:41;;;;;;;;;;;;;;;1.49;100.00;100720.34;5094143;28;19924;-78
2021/01/04 02:10:11;;;;;;;;;;;;;;;1.51;100.00;100715.31;5093640;28;19970;-78
2021/01/04 02:12:46;;;;;;;;;;;;;;;1.55;100.00;100717.09;5094095;28;19924;-78
2021/01/04 02:15:16;;;;;;;;;;;;;;;1.53;100.00;100724.88;5093791;28;19967;-78
2021/01/04 02:17:43;;;;;;;;;;;;;;;1.57;100.00;100714.84;5092447;28;19924;-78
2021/01/04 02:20:13;;;;;;;;;;;;;;;1.56;100.00;100718.72;5093870;28;19924;-78
2021/01/04 02:22:48;;;;;;;;;;;;;;;1.61;100.00;100724.06;5093766;28;19924;-78
2021/01/04 02:25:15;;;;;;;;;;;;;;;1.56;100.00;100723.44;5093507;28;19934;-78
2021/01/04 02:27:46;;;;;;;;;;;;;;;1.49;100.00;100717.59;5093909;28;19924;-78
2021/01/04 02:30:13;;;;;;;;;;;;;;;1.51;100.00;100724.41;5093748;28;19959;-78
2021/01/04 02:32:40;;;;;;;;;;;;;;;1.48;100.00;100700.25;5093769;28;19931;-78
2021/01/04 02:35:06;;;;;;;;;;;;;;;1.42;100.00;100712.53;5093792;28;19924;-78
2021/01/04 02:37:33;;;;;;;;;;;;;;;1.39;100.00;100713.19;5093613;28;19924;-78
2021/01/04 02:40:01;;;;;;;;;;;;;;;1.35;100.00;100706.72;5093474;28;19924;-78
2021/01/04 02:42:27;;;;;;;;;;;;;;;1.37;100.00;100709.97;5093598;28;19931;-78
2021/01/04 02:44:54;;;;;;;;;;;;;;;1.37;100.00;100707.22;5093583;28;19935;-78
2021/01/04 02:47:30;;;;;;;;;;;;;;;1.36;100.00;100708.31;5092373;28;19924;-77
2021/01/04 02:50:09;;;;;;;;;;;;;;;1.36;100.00;100707.53;5093901;28;19924;-78
2021/01/04 02:52:54;;;;;;;;;;;;;;;1.39;100.00;100710.44;5095767;28;19950;-78
2021/01/04 02:55:25;;;;;;;;;;;;;;;1.37;100.00;100714.66;5096885;28;20015;-78
2021/01/04 02:58:03;;;;;;;;;;;;;;;1.36;100.00;100708.31;5097202;28;19931;-78
2021/01/04 03:00:30;;;;;;;;;;;;;;;1.32;100.00;100704.63;5097459;28;19932;-78
2021/01/04 03:03:00;;;;;;;;;;;;;;;1.28;100.00;100702.81;5095825;28;20363;-78
2021/01/04 03:05:27;;;;;;;;;;;;;;;1.31;100.00;100699.44;5096864;28;19928;-78
2021/01/04 03:07:58;;;;;;;;;;;;;;;1.29;100.00;100702.50;5096784;28;19931;-78
2021/01/04 03:10:28;;;;;;;;;;;;;;;1.29;100.00;100697.00;5096993;28;20022;-77
2021/01/04 03:13:07;;;;;;;;;;;;;;;1.29;100.00;100699.75;5097111;28;20451;-77
2021/01/04 03:15:44;;;;;;;;;;;;;;;1.28;100.00;100714.66;5096911;28;20280;-78
2021/01/04 03:18:26;;;;;;;;;;;;;;;1.34;100.00;100710.63;5096773;28;19928;-78
2021/01/04 03:20:53;;;;;;;;;;;;;;;1.34;100.00;100721.63;5095617;28;19924;-75
2021/01/04 03:23:20;;;;;;;;;;;;;;;1.27;100.00;100715.78;5096663;28;19928;-78
2021/01/04 03:25:54;;;;;;;;;;;;;;;1.24;100.00;100708.16;5096589;28;19947;-78
2021/01/04 03:28:28;;;;;;;;;;;;;;;1.22;100.00;100713.19;5096741;28;19966;-77
2021/01/04 03:30:59;;;;;;;;;;;;;;;1.26;100.00;100716.91;5096627;28;20248;-74
2021/01/04 03:33:25;;;;;;;;;;;;;;;1.30;100.00;100728.13;5096400;28;19970;-78
2021/01/04 03:35:52;;;;;;;;;;;;;;;1.34;100.00;100727.16;5096371;28;20027;-78
2021/01/04 03:38:19;;;;;;;;;;;;;;;1.35;100.00;100727.94;5095965;28;20294;-78
2021/01/04 03:40:46;;;;;;;;;;;;;;;1.34;100.00;100724.38;5096231;28;20390;-75
2021/01/04 03:43:13;;;;;;;;;;;;;;;1.38;100.00;100719.84;5095089;28;20010;-77
2021/01/04 03:45:39;;;;;;;;;;;;;;;1.30;100.00;100709.63;5096166;28;20015;-78
2021/01/04 03:48:06;;;;;;;;;;;;;;;1.31;100.00;100704.94;5096118;28;20359;-78
2021/01/04 03:50:33;;;;;;;;;;;;;;;1.29;100.00;100709.94;5094815;28;19932;-77
2021/01/04 03:52:59;;;;;;;;;;;;;;;1.32;100.00;100712.88;5095714;28;19947;-77
2021/01/04 03:55:25;;;;;;;;;;;;;;;1.27;100.00;100724.03;5095927;28;19924;-77
2021/01/04 03:57:52;;;;;;;;;;;;;;;1.23;100.00;100709.31;5094708;28;19924;-77
2021/01/04 04:00:19;;;;;;;;;;;;;;;1.15;100.00;100718.34;5095866;28;19931;-77
2021/01/04 04:02:47;;;;;;;;;;;;;;;1.17;100.00;100720.78;5093545;28;20290;-77
2021/01/04 04:05:15;;;;;;;;;;;;;;;1.17;100.00;100710.59;5095764;28;19963;-78
2021/01/04 04:07:42;;;;;;;;;;;;;;;1.19;100.00;100719.34;5094259;28;19924;-77
2021/01/04 04:10:09;;;;;;;;;;;;;;;1.18;100.00;100716.91;5094482;28;19969;-77
2021/01/04 04:12:36;;;;;;;;;;;;;;;1.18;100.00;100720.47;5095706;28;19924;-78
2021/01/04 04:15:07;;;;;;;;;;;;;;;1.18;100.00;100714.97;5095254;28;19928;-77
2021/01/04 04:17:34;;;;;;;;;;;;;;;1.21;100.00;100711.56;5095717;28;19928;-77
2021/01/04 04:20:00;;;;;;;;;;;;;;;1.26;100.00;100719.69;5095545;28;20019;-77
2021/01/04 04:22:28;;;;;;;;;;;;;;;1.35;100.00;100706.72;5095214;28;19924;-77
2021/01/04 04:24:55;;;;;;;;;;;;;;;1.32;100.00;100712.88;5095351;28;19964;-77
2021/01/04 04:27:21;;;;;;;;;;;;;;;1.36;100.00;100713.84;5095221;28;20382;-77
2021/01/04 04:29:48;;;;;;;;;;;;;;;1.42;100.00;100720.03;5094124;28;19966;-77
2021/01/04 04:32:16;;;;;;;;;;;;;;;1.44;100.00;100715.78;5095186;28;19950;-77
2021/01/04 04:34:42;;;;;;;;;;;;;;;1.37;100.00;100712.72;5093852;28;19944;-77
2021/01/04 04:37:09;;;;;;;;;;;;;;;1.37;100.00;100717.41;5095153;28;19923;-77
2021/01/04 04:39:36;;;;;;;;;;;;;;;1.37;100.00;100715.47;5093970;28;19928;-77
2021/01/04 04:42:08;;;;;;;;;;;;;;;1.38;100.00;100716.28;5095101;28;19970;-77
2021/01/04 04:44:56;;;;;;;;;;;;;;;1.37;100.00;100715.47;5094913;28;19932;-77
2021/01/04 04:47:23;;;;;;;;;;;;;;;1.38;100.00;100722.59;5093658;28;19924;-77
2021/01/04 04:50:10;;;;;;;;;;;;;;;1.42;100.00;100714.50;5094628;28;20010;-77
2021/01/04 04:52:55;;;;;;;;;;;;;;;1.52;100.00;100723.25;5094819;28;20360;-77
2021/01/04 04:55:48;;;;;;;;;;;;;;;1.52;100.00;100723.25;5094840;28;20359;-77
2021/01/04 04:58:29;;;;;;;;;;;;;;;1.62;100.00;100728.44;5094701;28;19935;-77
2021/01/04 05:00:59;;;;;;;;;;;;;;;1.60;100.00;100725.22;5093430;28;19924;-77
2021/01/04 05:03:37;;;;;;;;;;;;;;;1.57;100.00;100723.13;5094662;28;19924;-77
2021/01/04 05:06:10;;;;;;;;;;;;;;;1.48;100.00;100722.31;5094545;28;19955;-77
2021/01/04 05:08:52;;;;;;;;;;;;;;;1.45;100.00;100722.91;5094667;28;20367;-77
2021/01/04 05:11:21;;;;;;;;;;;;;;;1.47;100.00;100719.88;5093305;28;19924;-77
2021/01/04 05:13:50;;;;;;;;;;;;;;;1.46;100.00;100724.56;5094207;28;19947;-77
2021/01/04 05:16:21;;;;;;;;;;;;;;;1.46;100.00;100712.72;5094395;28;19928;-77
2021/01/04 05:18:57;;;;;;;;;;;;;;;1.44;100.00;100734.25;5094030;28;20382;-77
2021/01/04 05:21:23;;;;;;;;;;;;;;;1.46;100.00;100727.31;5094408;28;19947;-77
2021/01/04 05:23:50;;;;;;;;;;;;;;;1.44;100.00;100735.06;5094217;28;19932;-77
2021/01/04 05:26:28;;;;;;;;;;;;;;;1.41;100.00;100727.47;5126922;27;20290;-77
2021/01/04 05:29:01;;;;;;;;;;;;;;;1.40;100.00;100736.88;5094325;28;20295;-77
2021/01/04 05:31:51;;;;;;;;;;;;;;;1.40;100.00;100742.38;5094276;28;19924;-77
2021/01/04 05:34:29;;;;;;;;;;;;;;;1.35;100.00;100734.25;5088245;28;20275;-77
2021/01/04 05:37:02;;;;;;;;;;;;;;;1.42;100.00;100740.09;5094134;28;20347;-77
2021/01/04 05:39:29;;;;;;;;;;;;;;;1.37;100.00;100734.75;5094106;28;19931;-77
2021/01/04 05:41:58;;;;;;;;;;;;;;;1.32;100.00;100723.06;5093894;28;19931;-77
2021/01/04 05:44:34;;;;;;;;;;;;;;;1.30;100.00;100728.13;5094088;28;20362;-77
2021/01/04 05:47:24;;;;;;;;;;;;;;;1.30;100.00;100730.88;5093979;28;20377;-77
2021/01/04 05:49:56;;;;;;;;;;;;;;;1.29;100.00;100730.03;5094087;28;20291;-77
2021/01/04 05:52:23;;;;;;;;;;;;;;;1.35;100.00;100736.19;5094105;28;19924;-77
2021/01/04 05:54:50;;;;;;;;;;;;;;;1.36;100.00;100735.09;5093864;28;20369;-77
2021/01/04 05:57:17;;;;;;;;;;;;;;;1.40;100.00;100745.13;5092646;28;19931;-77
2021/01/04 05:59:48;;;;;;;;;;;;;;;1.43;100.00;100727.97;5092544;28;20373;-77
2021/01/04 06:02:24;;;;;;;;;;;;;;;1.42;100.00;100739.31;5093494;28;20016;-77
2021/01/04 06:04:50;;;;;;;;;;;;;;;1.46;100.00;100735.56;5093871;28;19931;-77
2021/01/04 06:07:17;;;;;;;;;;;;;;;1.58;100.00;100743.19;5093935;28;19924;-77
2021/01/04 06:09:53;;;;;;;;;;;;;;;1.61;100.00;100754.38;5093853;28;19925;-77
2021/01/04 06:12:27;;;;;;;;;;;;;;;1.66;100.00;100745.97;5093920;28;19931;-77
2021/01/04 06:14:58;;;;;;;;;;;;;;;1.69;100.00;100756.34;5092402;28;20348;-77
2021/01/04 06:17:24;;;;;;;;;;;;;;;1.74;100.00;100756.16;5093352;28;20749;-77
2021/01/04 06:19:52;;;;;;;;;;;;;;;1.73;100.00;100762.81;5093764;28;20440;-77
2021/01/04 06:22:26;;;;;;;;;;;;;;;1.72;100.00;100755.69;5093709;28;20343;-77
2021/01/04 06:24:57;;;;;;;;;;;;;;;1.73;100.00;100778.53;5093584;28;19925;-77
2021/01/04 06:27:32;;;;;;;;;;;;;;;1.71;100.00;100773.34;5096915;28;20374;-77
2021/01/04 06:30:01;;;;;;;;;;;;;;;1.70;100.00;100779.19;5097636;28;19924;-77
2021/01/04 06:32:29;;;;;;;;;;;;;;;1.68;100.00;100759.41;5096029;28;19947;-77
2021/01/04 06:34:58;;;;;;;;;;;;;;;1.66;100.00;100772.69;5097393;28;20371;-77
2021/01/04 06:37:28;;;;;;;;;;;;;;;1.64;100.00;100764.75;5097434;28;20416;-77
2021/01/04 06:40:13;;;;;;;;;;;;;;;1.62;100.00;100777.25;5097484;28;20379;-77
2021/01/04 06:42:43;;;;;;;;;;;;;;;1.59;100.00;100759.41;5097392;28;20391;-77
2021/01/04 06:45:24;;;;;;;;;;;;;;;1.58;100.00;100763.28;5097226;28;20010;-77
2021/01/04 06:47:54;;;;;;;;;;;;;;;1.64;100.00;100770.28;5097155;28;19964;-77
2021/01/04 06:50:26;;;;;;;;;;;;;;;1.67;100.00;100777.06;5097364;28;20278;-77
2021/01/04 06:53:11;;;;;;;;;;;;;;;1.62;100.00;100778.03;5095426;28;19925;-77
2021/01/04 06:55:41;;;;;;;;;;;;;;;1.62;100.00;100782.75;5079741;28;19924;-77
2021/01/04 06:58:19;;;;;;;;;;;;;;;1.61;100.00;100781.13;5090659;28;20405;-77
2021/01/04 07:00:57;;;;;;;;;;;;;;;1.57;100.00;100780.16;5092912;28;20309;-77
2021/01/04 07:03:30;;;;;;;;;;;;;;;1.59;100.00;100777.91;5094121;28;19924;-77
2021/01/04 07:06:27;;;;;;;;;;;;;;;1.58;100.00;100777.06;5093373;28;19924;-77
2021/01/04 07:09:14;;;;;;;;;;;;;;;1.56;100.00;100778.53;5092442;28;19983;-77
2021/01/04 07:11:54;;;;;;;;;;;;;;;1.55;100.00;100774.97;5071173;28;19924;-75
2021/01/04 07:14:39;;;;;;;;;;;;;;;1.56;100.00;100782.09;5092320;28;19931;-77
2021/01/04 07:17:14;;;;;;;;;;;;;;;1.64;100.00;100780.47;5093408;28;19924;-77
2021/01/04 07:19:44;;;;;;;;;;;;;;;1.64;100.00;100781.28;5091678;28;19924;-76
2021/01/04 07:22:20;;;;;;;;;;;;;;;1.60;100.00;100785.84;5092634;28;19993;-77
2021/01/04 07:24:53;;;;;;;;;;;;;;;1.58;100.00;100779.00;5092416;28;19928;-77
2021/01/04 07:27:24;;;;;;;;;;;;;;;1.58;100.00;100782.59;5095191;28;19928;-77
2021/01/04 07:30:03;;;;;;;;;;;;;;;1.59;100.00;100786.16;5094994;28;19924;-77
2021/01/04 07:32:45;;;;;;;;;;;;;;;1.51;100.00;100778.69;5094757;28;19924;-77
2021/01/04 07:35:14;;;;;;;;;;;;;;;1.44;100.00;100776.41;5096482;28;19924;-77
2021/01/04 07:37:41;;;;;;;;;;;;;;;1.39;100.00;100767.50;5096354;28;20030;-77
2021/01/04 07:40:08;;;;;;;;;;;;;;;1.43;100.00;100773.97;5095475;28;20352;-78
2021/01/04 07:42:53;;;;;;;;;;;;;;;1.42;100.00;100772.34;5096456;28;19924;-77
2021/01/04 07:45:37;;;;;;;;;;;;;;;1.42;100.00;100773.16;5096029;28;19924;-76
2021/01/04 07:48:06;;;;;;;;;;;;;;;1.48;100.00;100782.09;5096248;28;19924;-76
2021/01/04 07:50:41;;;;;;;;;;;;;;;1.46;100.00;100779.66;5096281;28;19924;-76
2021/01/04 07:53:27;;;;;;;;;;;;;;;1.46;100.00;100776.91;5096270;28;19924;-76
2021/01/04 07:55:53;;;;;;;;;;;;;;;1.45;100.00;100786.28;5096085;28;19971;-77
2021/01/04 07:58:29;;;;;;;;;;;;;;;1.48;100.00;100782.91;5095744;28;19931;-76
2021/01/04 08:01:15;;;;;;;;;;;;;;;1.48;100.00;100784.84;5077848;28;19928;-77
2021/01/04 08:04:00;;;;;;;;;;;;;;;1.48;100.00;100788.41;5096119;28;19924;-76
2021/01/04 08:06:32;;;;;;;;;;;;;;;1.44;100.00;100781.91;5096022;28;19924;-77
2021/01/04 08:09:08;;;;;;;;;;;;;;;1.40;100.00;100780.13;5095970;28;20367;-77
2021/01/04 08:11:35;;;;;;;;;;;;;;;1.44;100.00;100787.41;5094750;28;19935;-76
2021/01/04 08:14:11;;;;;;;;;;;;;;;1.53;100.00;100802.00;5095370;28;20391;-76
2021/01/04 08:16:41;;;;;;;;;;;;;;;1.58;100.00;100809.31;5095792;28;19924;-76
2021/01/04 08:19:09;;;;;;;;;;;;;;;1.61;100.00;100801.22;5094725;28;19924;-77
2021/01/04 08:21:40;;;;;;;;;;;;;;;1.58;100.00;100793.59;5095795;28;19928;-75
2021/01/04 08:24:14;;;;;;;;;;;;;;;1.50;100.00;100796.34;5095766;28;20287;-77
2021/01/04 08:26:46;;;;;;;;;;;;;;;1.50;100.00;100791.63;5094081;28;19935;-77
2021/01/04 08:29:32;;;;;;;;;;;;;;;1.46;100.00;100809.97;5095648;28;19924;-77
2021/01/04 08:32:19;;;;;;;;;;;;;;;1.54;100.00;100786.31;5087226;28;19959;-78
2021/01/04 08:34:46;;;;;;;;;;;;;;;1.56;100.00;100806.88;5095371;28;19925;-78
2021/01/04 08:37:14;;;;;;;;;;;;;;;1.50;100.00;100791.63;5094307;28;19931;-78
2021/01/04 08:39:43;;;;;;;;;;;;;;;1.46;100.00;100798.94;5094098;28;19931;-78
2021/01/04 08:42:29;;;;;;;;;;;;;;;1.46;100.00;100796.19;5095248;28;19938;-78
2021/01/04 08:45:06;;;;;;;;;;;;;;;1.59;100.00;100803.47;5095274;28;19923;-78
2021/01/04 08:47:32;;;;;;;;;;;;;;;1.61;100.00;100798.47;5095224;28;19970;-77
2021/01/04 08:50:00;;;;;;;;;;;;;;;1.68;100.00;100809.03;5094650;28;19928;-77
2021/01/04 08:52:39;;;;;;;;;;;;;;;1.71;100.00;100811.94;5095139;28;19924;-78
2021/01/04 08:55:05;;;;;;;;;;;;;;;1.71;100.00;100798.13;5095023;28;20375;-78
2021/01/04 08:57:45;;;;;;;;;;;;;;;1.72;100.00;100793.44;5094632;28;19924;-78
2021/01/04 09:00:17;;;;;;;;;;;;;;;1.72;100.00;100805.28;5095031;28;19928;-78
2021/01/04 09:02:44;;;;;;;;;;;;;;;1.70;100.00;100791.03;5095191;28;19928;-78
2021/01/04 09:05:12;;;;;;;;;;;;;;;1.71;100.00;100787.13;5093720;28;19951;-78
2021/01/04 09:07:49;;;;;;;;;;;;;;;1.67;100.00;100780.66;5094573;28;19978;-77
2021/01/04 09:10:24;;;;;;;;;;;;;;;1.66;100.00;100784.53;5094508;28;19974;-78
2021/01/04 09:13:06;;;;;;;;;;;;;;;1.65;100.00;100779.34;5094609;28;19928;-78
2021/01/04 09:15:33;;;;;;;;;;;;;;;1.66;100.00;100786.47;5093495;28;19924;-74
2021/01/04 09:17:59;;;;;;;;;;;;;;;1.67;100.00;100788.91;5058212;28;20291;-74
2021/01/04 09:20:35;;;;;;;;;;;;;;;1.65;100.00;100785.66;5090623;28;19967;-74
2021/01/04 09:23:07;;;;;;;;;;;;;;;1.75;100.00;100793.63;5090995;28;20659;-74
2021/01/04 09:25:48;;;;;;;;;;;;;;;1.74;100.00;100791.97;5088258;28;19936;-74
2021/01/04 09:28:16;;;;;;;;;;;;;;;1.74;100.00;100783.72;5089510;28;20034;-77
2021/01/04 09:30:43;;;;;;;;;;;;;;;1.77;100.00;100794.09;5089553;28;19924;-76
2021/01/04 09:33:14;;;;;;;;;;;;;;;1.86;100.00;100805.94;5090302;28;19931;-76
2021/01/04 09:35:41;;;;;;;;;;;;;;;1.92;100.00;100787.31;5089366;28;19924;-76
2021/01/04 09:38:28;;;;;;;;;;;;;;;1.98;100.00;100804.47;5089407;28;20008;-76
2021/01/04 09:41:06;;;;;;;;;;;;;;;2.00;100.00;100799.47;5089776;28;19931;-76
2021/01/04 09:43:34;;;;;;;;;;;;;;;2.01;100.00;100801.06;5090265;28;19951;-76
2021/01/04 09:46:10;;;;;;;;;;;;;;;1.99;100.00;100782.09;5089375;28;19992;-76
2021/01/04 09:48:40;;;;;;;;;;;;;;;1.96;100.00;100793.78;5089231;28;19932;-74
2021/01/04 09:51:09;;;;;;;;;;;;;;;1.97;100.00;100792.63;5089752;28;20023;-76
2021/01/04 09:53:37;;;;;;;;;;;;;;;1.97;100.00;100783.56;5090203;28;19931;-76
2021/01/04 09:56:05;;;;;;;;;;;;;;;1.91;100.00;100782.13;5089230;28;19923;-76
2021/01/04 09:58:31;;;;;;;;;;;;;;;1.88;100.00;100782.75;5088212;28;20023;-76
2021/01/04 10:01:07;;;;;;;;;;;;;;;1.95;100.00;100780.31;5091013;28;20566;-77
2021/01/04 10:03:33;;;;;;;;;;;;;;;1.93;100.00;100777.88;5094609;28;20280;-76
2021/01/04 10:05:59;;;;;;;;;;;;;;;1.97;100.00;100778.84;5096642;28;19993;-76
2021/01/04 10:08:27;;;;;;;;;;;;;;;2.00;100.00;100782.91;5097039;28;20398;-76
2021/01/04 10:10:58;;;;;;;;;;;;;;;2.00;100.00;100780.16;5096778;28;20428;-77
2021/01/04 10:13:26;;;;;;;;;;;;;;;1.99;100.00;100770.25;5097600;28;19924;-76
2021/01/04 10:15:54;;;;;;;;;;;;;;;2.01;100.00;100757.78;5097926;28;19924;-77
2021/01/04 10:18:39;;;;;;;;;;;;;;;2.03;100.00;100760.22;5096513;28;20026;-77
2021/01/04 10:21:11;;;;;;;;;;;;;;;2.02;100.00;100755.81;5097615;28;19928;-77
2021/01/04 10:23:43;;;;;;;;;;;;;;;2.03;100.00;100740.91;5097271;28;19924;-77
2021/01/04 10:26:25;;;;;;;;;;;;;;;2.03;100.00;100732.63;5097807;28;20003;-77
2021/01/04 10:28:51;;;;;;;;;;;;;;;2.08;100.00;100743.47;5097685;28;19924;-76
2021/01/04 10:31:21;;;;;;;;;;;;;;;2.07;100.00;100744.63;5097407;28;19942;-76
2021/01/04 10:33:48;;;;;;;;;;;;;;;2.08;100.00;100741.53;5097407;28;19924;-76
2021/01/04 10:36:14;;;;;;;;;;;;;;;2.11;100.00;100740.06;5096214;27;20372;-76
2021/01/04 10:38:44;;;;;;;;;;;;;;;2.10;100.00;100732.94;5096994;28;20273;-75
2021/01/04 10:41:12;;;;;;;;;;;;;;;2.12;100.00;100731.47;5097325;28;20337;-75
2021/01/04 10:43:38;;;;;;;;;;;;;;;2.16;100.00;100726.09;5097350;28;20380;-75
2021/01/04 10:46:34;;;;;;;;;;;;;;;2.17;100.00;100733.22;5097315;28;19927;-76
2021/01/04 10:49:03;;;;;;;;;;;;;;;2.16;100.00;100715.06;5087562;28;19931;-76
2021/01/04 10:51:29;;;;;;;;;;;;;;;2.13;100.00;100718.50;5097125;28;19924;-76
2021/01/04 10:53:56;;;;;;;;;;;;;;;2.15;100.00;100719.78;5095614;28;20308;-75
2021/01/04 10:56:37;;;;;;;;;;;;;;;2.12;100.00;100720.44;5096984;28;19924;-76
2021/01/04 10:59:10;;;;;;;;;;;;;;;2.05;100.00;100725.66;5097068;28;19924;-76
2021/01/04 11:01:38;;;;;;;;;;;;;;;2.00;100.00;100714.00;5089563;28;20518;-73
2021/01/04 11:04:07;;;;;;;;;;;;;;;2.02;100.00;100717.22;5125262;27;19928;-76
2021/01/04 11:06:38;;;;;;;;;;;;;;;1.99;100.00;100717.84;5090639;28;20655;-76
2021/01/04 11:09:12;;;;;;;;;;;;;;;1.97;100.00;100701.66;5092571;28;19928;-76
2021/01/04 11:11:40;;;;;;;;;;;;;;;1.97;100.00;100711.88;5092437;28;19924;-75
2021/01/04 11:14:06;;;;;;;;;;;;;;;2.00;100.00;100716.75;5092838;28;19928;-74
2021/01/04 11:16:39;;;;;;;;;;;;;;;2.02;100.00;100706.19;5091589;28;19924;-74
2021/01/04 11:19:06;;;;;;;;;;;;;;;1.99;100.00;100690.28;5092204;28;19928;-75
2021/01/04 11:21:34;;;;;;;;;;;;;;;1.96;100.00;100696.47;5091653;28;20011;-74
2021/01/04 11:24:01;;;;;;;;;;;;;;;1.94;100.00;100694.03;5092042;28;19950;-72
2021/01/04 11:26:27;;;;;;;;;;;;;;;1.92;100.00;100699.88;5092134;28;20042;-73
2021/01/04 11:28:54;;;;;;;;;;;;;;;1.91;100.00;100696.66;5091506;28;20295;-73
2021/01/04 11:31:20;;;;;;;;;;;;;;;1.92;100.00;100697.13;5091894;28;19959;-73
2021/01/04 11:33:47;;;;;;;;;;;;;;;1.98;100.00;100688.69;5092461;28;19928;-73
2021/01/04 11:36:14;;;;;;;;;;;;;;;2.08;100.00;100682.81;5091862;28;19928;-73
2021/01/04 11:38:40;;;;;;;;;;;;;;;2.06;100.00;100672.09;5090388;28;19924;-73
2021/01/04 11:41:07;;;;;;;;;;;;;;;2.09;100.00;100670.66;5092617;28;19924;-73
2021/01/04 11:43:33;;;;;;;;;;;;;;;2.13;100.00;100668.84;5091864;28;19924;-74
2021/01/04 11:46:02;;;;;;;;;;;;;;;2.17;100.00;100661.53;5089776;28;20427;-74
2021/01/04 11:48:28;;;;;;;;;;;;;;;2.25;100.00;100663.47;5091340;28;19924;-74
2021/01/04 11:50:55;;;;;;;;;;;;;;;2.35;100.00;100668.63;5090737;28;19924;-74
2021/01/04 11:53:24;;;;;;;;;;;;;;;2.37;100.00;100666.34;5090513;28;20341;-74
2021/01/04 11:55:50;;;;;;;;;;;;;;;2.41;100.00;100650.75;5092615;28;19924;-72
2021/01/04 11:58:17;;;;;;;;;;;;;;;2.47;100.00;100643.91;5091391;28;19928;-73
2021/01/04 12:00:43;;;;;;;;;;;;;;;2.50;100.00;100644.03;5090774;28;19973;-75
2021/01/04 12:03:11;;;;;;;;;;;;;;;2.52;100.00;100644.53;5092158;28;20714;-74
2021/01/04 12:05:37;;;;;;;;;;;;;;;2.59;100.00;100635.72;5091241;28;19931;-74
2021/01/04 12:08:04;;;;;;;;;;;;;;;2.57;100.00;100638.00;5091995;28;19923;-73
2021/01/04 12:10:31;;;;;;;;;;;;;;;2.60;100.00;100637.34;5090522;28;19924;-73
2021/01/04 12:12:57;;;;;;;;;;;;;;;2.59;100.00;100635.72;5091272;28;20277;-74
2021/01/04 12:15:24;;;;;;;;;;;;;;;2.55;100.00;100623.72;5091823;28;19931;-74
2021/01/04 12:17:51;;;;;;;;;;;;;;;2.53;100.00;100623.25;5090248;28;19928;-75
2021/01/04 12:20:18;;;;;;;;;;;;;;;2.52;100.00;100627.16;5082974;28;20429;-74
2021/01/04 12:22:44;;;;;;;;;;;;;;;2.46;100.00;100628.47;5090404;28;19924;-75
2021/01/04 12:25:11;;;;;;;;;;;;;;;2.44;100.00;100620.53;5090560;28;19950;-74
2021/01/04 12:27:38;;;;;;;;;;;;;;;2.44;100.00;100616.97;5090999;28;19936;-74
2021/01/04 12:30:05;;;;;;;;;;;;;;;2.49;100.00;100614.00;5091458;28;20452;-74
2021/01/04 12:32:32;;;;;;;;;;;;;;;2.51;100.00;100611.75;5084689;28;19931;-76
2021/01/04 12:34:58;;;;;;;;;;;;;;;2.53;100.00;100607.50;5087652;28;19977;-74
2021/01/04 12:37:25;;;;;;;;;;;;;;;2.55;100.00;100619.00;5091614;28;20588;-74
2021/01/04 12:39:51;;;;;;;;;;;;;;;2.56;100.00;100603.28;5090597;28;20404;-75
2021/01/04 12:42:18;;;;;;;;;;;;;;;2.57;100.00;100600.19;5090751;28;19931;-76
2021/01/04 12:44:45;;;;;;;;;;;;;;;2.61;100.00;100589.28;5091287;28;20427;-75
2021/01/04 12:47:12;;;;;;;;;;;;;;;2.61;100.00;100584.56;5090804;28;19924;-76
2021/01/04 12:49:38;;;;;;;;;;;;;;;2.57;100.00;100575.34;5072875;28;19924;-76
2021/01/04 12:52:05;;;;;;;;;;;;;;;2.56;100.00;100575.69;5094173;28;19924;-76
2021/01/04 12:54:32;;;;;;;;;;;;;;;2.61;100.00;100575.47;5093521;28;19931;-78
2021/01/04 12:57:02;;;;;;;;;;;;;;;2.70;100.00;100554.13;5076418;28;19924;-76
2021/01/04 12:59:29;;;;;;;;;;;;;;;2.71;100.00;100564.84;5094707;28;19969;-77